Terminal Aerodrome Forecast
Issued by NWS

Home | Current Version | Previous Version | Text Only | Print | Product List | Glossary On
Versions: 1 2 3 4 5 6 7 8 9 10 11 12 13 14 15 16 17 18 19 20 21 22 23 24 25 26
000
FTUS43 KDMX 051914 AAC
TAFOTM
TAF AMD
KOTM 051914Z 0519/0618 18015KT P6SM SCT008 BKN120
     FM060900 22008KT P6SM OVC020
     FM061300 28010KT P6SM OVC035
     FM061700 30016G25KT P6SM SCT035 BKN150=

USA.gov is the U.S. government's official web portal to all federal, state and local government web resources and services.